Time;durP1;ratioP1;P1;durP2;ratioP2;P2;SDS_P1;SDS_P2;PMS_P1;PMS_P2;Temp;Humidity;BMP_temperature;BMP_pressure;BME280_temperature;BME280_humidity;BME280_pressure;Samples;Min_cycle;Max_cycle;Signal;HPM_P1;HPM_P2
2023/08/16 00:01:22;;;;;;;4.78;2.40;;;14.40;99.90;;;;;;5085536;28;20170;-86
2023/08/16 00:03:47;;;;;;;1.83;1.00;;;14.40;99.90;;;;;;5070404;28;20047;-86
2023/08/16 00:06:14;;;;;;;2.92;2.00;;;14.30;99.90;;;;;;5070466;28;20040;-86
2023/08/16 00:08:40;;;;;;;3.42;1.80;;;14.30;99.90;;;;;;5061206;28;20173;-85
2023/08/16 00:11:06;;;;;;;2.95;1.50;;;14.30;99.90;;;;;;5068410;28;20056;-86
2023/08/16 00:13:33;;;;;;;2.22;1.67;;;14.30;99.90;;;;;;5076317;28;20035;-86
2023/08/16 00:16:00;;;;;;;6.53;2.35;;;14.30;99.90;;;;;;5068729;28;20052;-86
2023/08/16 00:18:25;;;;;;;4.28;2.78;;;14.30;99.90;;;;;;5087613;28;20032;-86
2023/08/16 00:20:51;;;;;;;5.18;2.75;;;14.30;99.90;;;;;;5056465;28;20401;-86
2023/08/16 00:23:17;;;;;;;4.43;2.70;;;14.30;99.90;;;;;;5086914;28;20051;-86
2023/08/16 00:25:42;;;;;;;6.65;3.90;;;14.20;99.90;;;;;;5087505;28;20051;-86
2023/08/16 00:28:08;;;;;;;7.88;3.80;;;14.30;99.90;;;;;;5087660;28;20172;-86
2023/08/16 00:30:34;;;;;;;4.72;2.78;;;14.30;99.90;;;;;;5086174;28;20440;-86
2023/08/16 00:32:59;;;;;;;7.25;3.25;;;14.20;99.90;;;;;;5069293;28;20554;-86
2023/08/16 00:35:25;;;;;;;6.75;4.00;;;14.20;99.90;;;;;;5074564;28;20145;-86
2023/08/16 00:37:52;;;;;;;4.80;3.00;;;14.20;99.90;;;;;;5068428;28;20344;-85
2023/08/16 00:40:19;;;;;;;5.07;2.40;;;14.20;99.90;;;;;;5070619;28;20055;-85
2023/08/16 00:42:45;;;;;;;2.85;1.08;;;14.10;99.90;;;;;;5060804;28;20123;-86
2023/08/16 00:45:11;;;;;;;1.92;1.25;;;14.10;99.90;;;;;;5080408;28;20128;-86
2023/08/16 00:47:37;;;;;;;3.00;1.30;;;14.10;99.90;;;;;;5067004;28;20048;-86
2023/08/16 00:50:05;;;;;;;3.90;1.45;;;14.00;99.90;;;;;;5068846;28;20040;-86
2023/08/16 00:52:31;;;;;;;3.40;2.40;;;14.00;99.90;;;;;;5069226;28;20040;-86
2023/08/16 00:54:57;;;;;;;6.75;3.10;;;14.00;99.90;;;;;;5087574;28;20437;-86
2023/08/16 00:57:23;;;;;;;3.75;2.33;;;14.00;99.90;;;;;;5060285;28;20166;-85
2023/08/16 00:59:48;;;;;;;4.65;2.30;;;14.00;99.90;;;;;;5082723;28;20055;-85
2023/08/16 01:02:15;;;;;;;5.40;3.35;;;14.00;99.90;;;;;;5068570;28;20040;-85
2023/08/16 01:04:42;;;;;;;4.05;3.20;;;14.00;99.90;;;;;;5085231;28;20086;-85
2023/08/16 01:07:08;;;;;;;4.53;2.50;;;14.00;99.90;;;;;;5069376;28;20398;-86
2023/08/16 01:09:34;;;;;;;5.00;2.95;;;14.00;99.90;;;;;;5087568;28;20482;-85
2023/08/16 01:12:26;;;;;;;5.65;3.50;;;14.00;99.90;;;;;;5059711;28;20044;-85
2023/08/16 01:15:16;;;;;;;7.18;3.80;;;14.00;99.90;;;;;;5015152;28;20060;-85
2023/08/16 01:17:43;;;;;;;7.80;4.47;;;14.00;99.90;;;;;;5064296;28;20105;-85
2023/08/16 01:20:12;;;;;;;8.40;2.83;;;14.00;99.90;;;;;;5068800;28;20061;-85
2023/08/16 01:22:47;;;;;;;48.92;3.78;;;14.00;99.90;;;;;;5068832;28;20039;-86
2023/08/16 01:25:30;;;;;;;4.13;2.92;;;14.00;99.90;;;;;;5069183;28;20123;-86
2023/08/16 01:27:57;;;;;;;34.25;3.22;;;14.00;99.90;;;;;;5055545;28;20051;-86
2023/08/16 01:30:24;;;;;;;3.05;2.20;;;13.90;99.90;;;;;;5069358;28;20059;-85
2023/08/16 01:32:49;;;;;;;3.13;2.30;;;13.80;99.90;;;;;;5060317;28;20086;-85
2023/08/16 01:35:16;;;;;;;7.93;4.10;;;13.80;99.90;;;;;;5063308;28;20438;-86
2023/08/16 01:37:43;;;;;;;12.73;5.47;;;13.90;99.90;;;;;;5077840;28;20041;-86
2023/08/16 01:40:09;;;;;;;8.52;4.55;;;13.90;99.90;;;;;;5062760;28;20044;-86
2023/08/16 01:42:47;;;;;;;3.83;1.90;;;14.00;99.90;;;;;;5069291;28;20036;-86
2023/08/16 01:45:15;;;;;;;10.32;2.80;;;14.00;99.90;;;;;;5067996;28;20521;-87
2023/08/16 01:47:41;;;;;;;3.40;1.50;;;14.00;99.90;;;;;;5055954;28;20052;-87
2023/08/16 01:50:08;;;;;;;2.90;1.02;;;13.90;99.90;;;;;;5073691;28;20040;-86
2023/08/16 01:52:35;;;;;;;1.52;0.70;;;13.80;99.90;;;;;;5068741;28;20044;-87
2023/08/16 01:55:01;;;;;;;0.90;0.75;;;13.70;99.90;;;;;;5085632;28;20050;-86
2023/08/16 01:57:26;;;;;;;3.05;1.20;;;13.70;99.90;;;;;;5069569;28;20043;-87
2023/08/16 01:59:52;;;;;;;5.75;2.83;;;13.70;99.90;;;;;;5071048;28;20395;-87
2023/08/16 02:02:18;;;;;;;7.10;3.78;;;13.60;99.90;;;;;;5059429;28;20068;-86
2023/08/16 02:04:43;;;;;;;6.53;3.13;;;13.60;99.90;;;;;;5064018;28;20052;-86
2023/08/16 02:07:09;;;;;;;4.35;2.30;;;13.60;99.90;;;;;;5069279;28;20109;-87
2023/08/16 02:09:35;;;;;;;1.65;0.82;;;13.60;99.90;;;;;;5085669;28;20063;-86
2023/08/16 02:12:00;;;;;;;1.10;0.57;;;13.60;99.90;;;;;;5069151;28;20548;-87
2023/08/16 02:14:26;;;;;;;2.40;1.08;;;13.50;99.90;;;;;;5069631;28;20040;-86
2023/08/16 02:16:52;;;;;;;1.63;0.80;;;13.50;99.90;;;;;;5068109;28;20101;-86
2023/08/16 02:19:17;;;;;;;5.20;1.67;;;13.60;99.90;;;;;;5073043;28;20047;-87
2023/08/16 02:21:43;;;;;;;7.80;4.30;;;13.50;99.90;;;;;;5089522;28;20051;-87
2023/08/16 02:24:09;;;;;;;4.57;2.67;;;13.50;99.90;;;;;;5076902;28;20384;-87
2023/08/16 02:26:35;;;;;;;3.00;1.98;;;13.40;99.90;;;;;;5072697;28;20139;-87
2023/08/16 02:29:00;;;;;;;1.95;1.50;;;13.40;99.90;;;;;;5071043;28;20086;-87
2023/08/16 02:31:26;;;;;;;3.90;1.42;;;13.30;99.90;;;;;;5072314;28;20052;-87
2023/08/16 02:33:52;;;;;;;2.88;1.75;;;13.30;99.90;;;;;;5075999;28;20048;-87
2023/08/16 02:36:18;;;;;;;2.95;2.13;;;13.30;99.90;;;;;;5088014;28;20044;-86
2023/08/16 02:38:43;;;;;;;4.00;2.42;;;13.30;99.90;;;;;;5089211;28;20067;-87
2023/08/16 02:41:09;;;;;;;2.40;1.85;;;13.30;99.90;;;;;;5073001;28;20040;-87
2023/08/16 02:43:35;;;;;;;4.88;2.05;;;13.30;99.90;;;;;;5073758;28;20487;-86
2023/08/16 02:46:00;;;;;;;4.03;2.58;;;13.30;99.90;;;;;;5077644;28;20044;-86
2023/08/16 02:48:26;;;;;;;4.07;2.33;;;13.30;99.90;;;;;;5072695;28;20491;-87
2023/08/16 02:50:52;;;;;;;3.38;1.30;;;13.20;99.90;;;;;;5088423;28;20436;-87
2023/08/16 02:53:17;;;;;;;1.77;1.00;;;13.20;99.90;;;;;;5058194;28;20040;-87
2023/08/16 02:55:43;;;;;;;1.15;0.73;;;13.20;99.90;;;;;;5068751;28;20047;-87
2023/08/16 02:58:09;;;;;;;2.13;0.50;;;13.20;99.90;;;;;;5066756;28;20043;-87
2023/08/16 03:00:34;;;;;;;1.58;0.50;;;13.20;99.90;;;;;;5071957;28;20479;-87
2023/08/16 03:03:00;;;;;;;1.83;0.63;;;13.10;99.90;;;;;;5071619;28;20452;-87
2023/08/16 03:05:26;;;;;;;1.35;0.77;;;13.10;99.90;;;;;;5064517;28;20037;-87
2023/08/16 03:07:52;;;;;;;4.68;1.73;;;13.10;99.90;;;;;;5066453;28;20558;-87
2023/08/16 03:10:18;;;;;;;4.00;2.20;;;13.00;99.90;;;;;;5072775;28;20130;-87
2023/08/16 03:12:43;;;;;;;2.80;1.88;;;13.10;99.90;;;;;;5070441;28;20158;-86
2023/08/16 03:15:09;;;;;;;7.38;3.75;;;13.10;99.90;;;;;;5072513;28;20096;-87
2023/08/16 03:17:35;;;;;;;4.10;2.53;;;13.10;99.90;;;;;;5087751;28;20040;-87
2023/08/16 03:20:01;;;;;;;3.17;2.35;;;13.10;99.90;;;;;;5071414;28;20051;-87
2023/08/16 03:22:26;;;;;;;6.45;4.32;;;13.20;99.90;;;;;;5072662;28;20345;-87
2023/08/16 03:24:52;;;;;;;3.80;2.63;;;13.20;99.90;;;;;;5062910;28;20453;-86
2023/08/16 03:27:18;;;;;;;2.63;1.45;;;13.20;99.90;;;;;;5085197;28;20044;-87
2023/08/16 03:29:43;;;;;;;2.33;1.30;;;13.20;99.90;;;;;;5088716;28;20044;-87
2023/08/16 03:32:09;;;;;;;5.32;2.95;;;13.20;99.90;;;;;;5086493;28;20529;-87
2023/08/16 03:34:35;;;;;;;6.20;2.95;;;13.20;99.90;;;;;;5071963;28;20055;-87
2023/08/16 03:37:01;;;;;;;5.47;3.35;;;13.10;99.90;;;;;;5088265;28;20415;-87
2023/08/16 03:39:26;;;;;;;3.25;1.92;;;13.10;99.90;;;;;;5063177;28;20123;-87
2023/08/16 03:41:52;;;;;;;3.33;2.00;;;13.00;99.90;;;;;;5066772;28;20052;-87
2023/08/16 03:44:18;;;;;;;2.90;1.92;;;13.00;99.90;;;;;;5071596;28;20070;-87
2023/08/16 03:46:43;;;;;;;3.97;1.30;;;12.90;99.90;;;;;;5057178;28;20502;-87
2023/08/16 03:49:09;;;;;;;4.78;2.55;;;12.90;99.90;;;;;;5071474;28;20410;-87
2023/08/16 03:51:35;;;;;;;5.68;3.47;;;12.90;99.90;;;;;;5070982;28;20079;-87
2023/08/16 03:54:01;;;;;;;4.43;2.95;;;12.90;99.90;;;;;;5062232;28;20048;-86
2023/08/16 03:56:27;;;;;;;2.67;2.00;;;12.90;99.90;;;;;;5066075;28;20534;-86
2023/08/16 03:58:53;;;;;;;7.78;3.03;;;12.80;99.90;;;;;;5087809;28;20044;-87
2023/08/16 04:01:19;;;;;;;7.28;3.40;;;12.80;99.90;;;;;;5068227;28;20041;-86
2023/08/16 04:03:46;;;;;;;6.47;3.50;;;12.90;99.90;;;;;;5070879;28;20089;-87
2023/08/16 04:06:12;;;;;;;8.55;4.13;;;12.90;99.90;;;;;;5058051;28;20041;-87
2023/08/16 04:08:41;;;;;;;7.53;4.47;;;12.90;99.90;;;;;;5086827;28;20043;-87
2023/08/16 04:11:07;;;;;;;5.72;3.78;;;12.90;99.90;;;;;;5071125;28;20055;-87
2023/08/16 04:13:33;;;;;;;8.18;3.53;;;12.80;99.90;;;;;;5087346;28;20043;-86
2023/08/16 04:15:59;;;;;;;7.45;2.53;;;12.80;99.90;;;;;;5058999;28;20089;-87
2023/08/16 04:18:28;;;;;;;3.47;1.95;;;12.80;99.90;;;;;;5070853;28;20043;-87
2023/08/16 04:20:54;;;;;;;4.00;2.28;;;12.80;99.90;;;;;;5070000;28;20127;-87
2023/08/16 04:23:21;;;;;;;3.47;0.80;;;12.70;99.90;;;;;;5070605;28;20040;-87
2023/08/16 04:25:47;;;;;;;1.73;1.05;;;12.70;99.90;;;;;;5069341;28;20039;-86
2023/08/16 04:28:13;;;;;;;4.60;1.80;;;12.60;99.90;;;;;;5071166;28;20089;-87
2023/08/16 04:30:38;;;;;;;4.20;2.22;;;12.60;99.90;;;;;;5084449;28;20181;-87
2023/08/16 04:33:04;;;;;;;3.15;1.00;;;12.60;99.90;;;;;;5078003;28;20384;-87
2023/08/16 04:35:30;;;;;;;3.70;1.77;;;12.60;99.90;;;;;;5071058;28;20497;-88
2023/08/16 04:37:56;;;;;;;2.55;1.27;;;12.60;99.90;;;;;;5068377;28;20545;-87
2023/08/16 04:40:21;;;;;;;3.95;2.22;;;12.60;99.90;;;;;;5073211;28;20056;-87
2023/08/16 04:42:47;;;;;;;3.42;2.13;;;12.60;99.90;;;;;;5065909;28;20051;-86
2023/08/16 04:45:14;;;;;;;3.55;2.40;;;12.60;99.90;;;;;;5059866;28;20488;-87
2023/08/16 04:47:39;;;;;;;4.13;2.38;;;12.60;99.90;;;;;;5084490;28;20066;-87
2023/08/16 04:50:08;;;;;;;4.43;2.55;;;12.70;99.90;;;;;;5065395;28;20048;-86
2023/08/16 04:52:37;;;;;;;6.72;3.10;;;12.70;99.90;;;;;;5067143;28;20417;-87
2023/08/16 04:55:04;;;;;;;5.45;3.25;;;12.80;99.90;;;;;;5068970;28;20044;-87
2023/08/16 04:57:29;;;;;;;4.75;3.75;;;12.90;99.90;;;;;;5084378;28;20028;-87
2023/08/16 04:59:55;;;;;;;5.30;3.20;;;12.90;99.90;;;;;;5068016;28;20050;-87
2023/08/16 05:02:21;;;;;;;4.43;3.35;;;13.00;99.90;;;;;;5085871;28;20414;-87
2023/08/16 05:04:46;;;;;;;7.50;3.75;;;13.00;99.90;;;;;;5069129;28;20051;-87
2023/08/16 05:07:12;;;;;;;7.85;3.67;;;13.10;99.90;;;;;;5070782;28;20077;-87
2023/08/16 05:09:38;;;;;;;5.28;3.08;;;13.10;99.90;;;;;;5067536;28;20700;-87
2023/08/16 05:12:04;;;;;;;5.90;3.60;;;13.10;99.90;;;;;;5049387;28;20040;-87
2023/08/16 05:14:30;;;;;;;5.82;3.92;;;13.20;99.90;;;;;;5070416;28;20049;-87
2023/08/16 05:16:56;;;;;;;7.45;3.72;;;13.20;99.90;;;;;;5059269;28;20076;-87
2023/08/16 05:19:21;;;;;;;4.72;3.80;;;13.30;99.90;;;;;;5082822;28;20086;-87
2023/08/16 05:21:47;;;;;;;4.45;3.20;;;13.40;99.90;;;;;;5086659;28;20510;-87
2023/08/16 05:24:13;;;;;;;4.68;2.88;;;13.40;99.90;;;;;;5069789;28;20042;-87
2023/08/16 05:26:39;;;;;;;2.25;1.55;;;13.50;99.90;;;;;;5086157;28;20054;-87
2023/08/16 05:29:04;;;;;;;2.50;1.67;;;13.60;99.90;;;;;;5054135;28;20344;-87
2023/08/16 05:31:30;;;;;;;3.05;1.60;;;13.60;99.90;;;;;;5058800;28;20062;-87
2023/08/16 05:33:56;;;;;;;3.33;2.33;;;13.70;99.90;;;;;;5083086;28;20045;-87
2023/08/16 05:36:22;;;;;;;2.60;1.80;;;13.80;99.90;;;;;;5059708;28;20044;-87
2023/08/16 05:38:47;;;;;;;2.40;1.92;;;13.90;99.90;;;;;;5085694;28;20070;-87
2023/08/16 05:41:13;;;;;;;3.00;2.05;;;14.00;99.90;;;;;;5087177;28;20115;-87
2023/08/16 05:43:39;;;;;;;3.95;2.92;;;14.10;99.90;;;;;;5085981;28;20064;-87
2023/08/16 05:46:05;;;;;;;5.30;2.75;;;14.20;99.90;;;;;;5069019;28;20200;-88
2023/08/16 05:48:31;;;;;;;5.75;3.50;;;14.30;99.90;;;;;;5084059;28;20060;-87
2023/08/16 05:50:56;;;;;;;8.65;5.25;;;14.40;99.90;;;;;;5059487;28;20044;-88
2023/08/16 05:53:22;;;;;;;6.32;4.80;;;14.50;99.90;;;;;;5087426;28;20052;-87
2023/08/16 05:55:48;;;;;;;9.27;4.97;;;14.60;99.90;;;;;;5079163;28;20059;-88
2023/08/16 05:58:14;;;;;;;9.07;5.03;;;14.70;99.90;;;;;;5064894;28;20078;-87
2023/08/16 06:00:39;;;;;;;9.35;5.75;;;14.80;99.90;;;;;;5065662;28;20041;-87
2023/08/16 06:03:05;;;;;;;6.70;4.82;;;14.90;99.90;;;;;;5060187;28;20102;-87
2023/08/16 06:05:34;;;;;;;5.90;4.72;;;15.00;99.90;;;;;;5074360;28;20477;-87
2023/08/16 06:07:59;;;;;;;7.00;4.55;;;15.10;99.90;;;;;;5089886;28;20125;-88
2023/08/16 06:10:25;;;;;;;11.32;6.00;;;15.20;99.90;;;;;;5081947;28;20153;-87
2023/08/16 06:12:51;;;;;;;9.18;5.40;;;15.40;99.90;;;;;;5086675;28;20149;-88
2023/08/16 06:15:16;;;;;;;11.98;7.20;;;15.40;99.90;;;;;;5073743;28;20623;-88
2023/08/16 06:17:45;;;;;;;14.43;7.50;;;15.50;99.90;;;;;;5088577;28;20059;-85
2023/08/16 06:20:11;;;;;;;13.43;6.80;;;15.40;99.90;;;;;;5089181;28;20044;-88
2023/08/16 06:22:37;;;;;;;11.68;7.45;;;15.60;99.90;;;;;;5072759;28;20043;-89
2023/08/16 06:25:07;;;;;;;11.95;8.05;;;15.70;99.90;;;;;;5063898;28;20062;-90
2023/08/16 06:27:33;;;;;;;13.95;7.47;;;15.90;99.90;;;;;;5073563;28;20130;-88
2023/08/16 06:30:00;;;;;;;14.60;8.85;;;16.10;99.90;;;;;;5072673;28;20043;-89
2023/08/16 06:32:28;;;;;;;16.60;7.75;;;16.10;99.90;;;;;;5074347;28;20122;-92
2023/08/16 06:34:54;;;;;;;13.20;8.20;;;16.30;99.90;;;;;;5090241;28;20543;-92
2023/08/16 06:37:21;;;;;;;15.90;8.15;;;16.30;99.90;;;;;;5087196;28;20040;-90
2023/08/16 06:39:47;;;;;;;12.38;8.10;;;16.30;99.90;;;;;;5054845;28;20530;-91
2023/08/16 06:42:13;;;;;;;19.92;8.50;;;16.20;99.90;;;;;;5068158;28;20037;-90
2023/08/16 06:44:40;;;;;;;10.73;6.82;;;16.40;99.90;;;;;;5066070;28;20040;-91
2023/08/16 06:47:06;;;;;;;11.95;6.57;;;16.40;99.90;;;;;;5061513;28;20036;-92
2023/08/16 06:49:32;;;;;;;14.55;7.38;;;16.40;99.90;;;;;;5072803;28;20415;-91
2023/08/16 06:51:58;;;;;;;12.48;8.23;;;16.50;99.90;;;;;;5072448;28;20048;-91
2023/08/16 06:54:23;;;;;;;15.25;8.60;;;16.60;99.90;;;;;;5074406;28;20387;-91
2023/08/16 06:56:57;;;;;;;15.95;7.45;;;16.70;99.90;;;;;;5072707;28;20046;-92
2023/08/16 06:59:27;;;;;;;10.48;6.93;;;16.80;99.90;;;;;;5079551;28;20052;-93
2023/08/16 07:01:52;;;;;;;12.95;6.32;;;16.80;99.90;;;;;;5070128;28;20047;-93
2023/08/16 07:04:18;;;;;;;13.70;6.15;;;16.90;99.90;;;;;;5088877;28;20044;-94
2023/08/16 07:06:44;;;;;;;12.70;6.53;;;17.00;99.90;;;;;;5072528;28;20470;-95
2023/08/16 07:09:10;;;;;;;12.23;5.68;;;17.10;99.90;;;;;;5065103;28;20606;-93
2023/08/16 07:11:35;;;;;;;13.20;5.38;;;17.10;99.90;;;;;;5059732;28;20041;-93
2023/08/16 07:14:01;;;;;;;10.95;4.53;;;17.20;99.90;;;;;;5074431;28;20721;-91
2023/08/16 07:16:27;;;;;;;12.52;4.95;;;17.30;99.90;;;;;;5090699;28;20035;-91
2023/08/16 07:18:55;;;;;;;8.10;4.20;;;17.40;99.90;;;;;;5071922;28;20130;-92
2023/08/16 07:21:21;;;;;;;9.35;4.18;;;17.40;99.90;;;;;;5083045;28;20047;-93
2023/08/16 07:23:50;;;;;;;10.50;3.85;;;17.60;99.90;;;;;;5083728;28;20491;-94
2023/08/16 07:26:16;;;;;;;10.45;2.42;;;17.60;99.90;;;;;;5071434;28;20506;-89
2023/08/16 07:28:41;;;;;;;6.30;1.80;;;17.70;99.90;;;;;;5070286;28;20044;-93
2023/08/16 07:31:32;;;;;;;4.88;1.50;;;17.80;99.90;;;;;;5327733;22;20040;31
2023/08/16 07:33:58;;;;;;;8.27;1.77;;;17.80;99.90;;;;;;5012053;28;20046;-92
2023/08/16 07:36:24;;;;;;;9.43;1.98;;;17.90;99.90;;;;;;5028858;28;20052;-91
2023/08/16 07:38:50;;;;;;;7.07;1.90;;;18.00;99.90;;;;;;5044854;28;20057;-93
2023/08/16 07:41:15;;;;;;;5.55;1.70;;;18.10;99.90;;;;;;5044976;28;20041;-92
2023/08/16 07:43:41;;;;;;;7.38;1.60;;;18.30;99.90;;;;;;5011820;28;20088;-93
2023/08/16 07:46:07;;;;;;;5.88;1.60;;;18.40;99.90;;;;;;5026599;28;20478;-92
2023/08/16 07:48:33;;;;;;;10.77;1.85;;;18.50;99.90;;;;;;5027348;28;20111;-92
2023/08/16 07:50:58;;;;;;;7.85;1.83;;;18.60;99.90;;;;;;5027111;28;20042;-92
2023/08/16 07:53:24;;;;;;;7.57;1.70;;;18.70;99.90;;;;;;5027616;28;20064;-92
2023/08/16 07:55:50;;;;;;;8.70;1.42;;;18.80;99.90;;;;;;5024330;28;20077;-92
2023/08/16 07:58:16;;;;;;;8.88;1.98;;;18.80;99.90;;;;;;5023937;28;20045;-92
2023/08/16 08:00:42;;;;;;;5.35;1.85;;;18.80;99.90;;;;;;5022999;28;20402;-92
2023/08/16 08:03:11;;;;;;;6.38;2.70;;;18.90;99.90;;;;;;5009184;28;20049;-92
2023/08/16 08:05:38;;;;;;;9.32;1.80;;;18.90;99.90;;;;;;5012514;28;20037;-92
2023/08/16 08:08:06;;;;;;;6.97;2.10;;;18.90;99.90;;;;;;5012064;28;20480;-93
2023/08/16 08:10:34;;;;;;;5.90;1.70;;;18.90;99.90;;;;;;5029333;28;20052;-92
2023/08/16 08:13:00;;;;;;;2.65;0.90;;;18.80;99.90;;;;;;5044950;28;20409;-92
2023/08/16 08:15:26;;;;;;;3.85;1.27;;;18.80;99.90;;;;;;5028020;28;20049;-93
2023/08/16 08:17:52;;;;;;;13.23;2.33;;;18.80;99.90;;;;;;5028060;28;20037;-91
2023/08/16 08:20:17;;;;;;;5.55;1.67;;;18.80;99.90;;;;;;5029236;28;20041;-91
2023/08/16 08:22:44;;;;;;;7.30;1.38;;;18.90;99.90;;;;;;4999413;28;20065;-93
2023/08/16 08:25:10;;;;;;;6.57;1.73;;;19.00;99.90;;;;;;5029078;28;20050;-92
2023/08/16 08:27:36;;;;;;;6.57;2.13;;;19.20;99.90;;;;;;5028249;28;20067;-92
2023/08/16 08:30:04;;;;;;;5.50;1.60;;;19.30;99.90;;;;;;5026173;28;20045;-90
2023/08/16 08:32:34;;;;;;;4.95;1.70;;;19.40;99.90;;;;;;5000993;28;20064;-89
2023/08/16 08:35:04;;;;;;;7.15;2.08;;;19.40;99.90;;;;;;5052757;28;20053;-90
2023/08/16 08:37:31;;;;;;;6.90;1.73;;;19.50;99.90;;;;;;5054070;28;20500;-88
2023/08/16 08:39:57;;;;;;;5.15;1.30;;;19.40;99.90;;;;;;5049060;28;20102;-87
2023/08/16 08:42:23;;;;;;;4.75;1.67;;;19.40;99.90;;;;;;5043081;28;20034;-92
2023/08/16 08:47:46;;;;;;;7.90;1.50;;;19.60;99.90;;;;;;5046241;28;20048;-91
2023/08/16 08:50:15;;;;;;;6.95;1.60;;;19.60;99.90;;;;;;5047318;28;20049;-91
2023/08/16 08:52:50;;;;;;;5.40;1.67;;;19.50;99.90;;;;;;5030065;28;20045;-91
2023/08/16 08:55:32;;;;;;;6.28;1.80;;;19.80;99.90;;;;;;5048771;28;20053;-91
2023/08/16 08:58:01;;;;;;;3.67;1.42;;;20.00;99.90;;;;;;5062632;28;20048;-89
2023/08/16 09:00:33;;;;;;;7.40;1.85;;;20.20;99.90;;;;;;5035388;28;20045;-91
2023/08/16 09:03:04;;;;;;;4.70;1.45;;;20.20;99.90;;;;;;5045156;28;20042;-91
2023/08/16 09:05:33;;;;;;;6.28;1.30;;;20.10;99.90;;;;;;5033704;28;20052;-91
2023/08/16 09:08:02;;;;;;;5.75;1.90;;;20.20;99.90;;;;;;5032876;28;20067;-91
2023/08/16 09:10:35;;;;;;;6.32;1.80;;;20.40;99.90;;;;;;5049830;28;20041;-92
2023/08/16 09:13:01;;;;;;;4.97;1.60;;;20.50;99.90;;;;;;5063058;28;20049;-92
2023/08/16 09:15:27;;;;;;;6.32;1.50;;;20.60;99.90;;;;;;5040725;28;20530;-91
2023/08/16 09:17:56;;;;;;;6.25;1.58;;;20.60;99.90;;;;;;5035110;28;20131;-91
2023/08/16 09:20:21;;;;;;;5.80;1.70;;;20.70;99.90;;;;;;5016686;28;20128;-91
2023/08/16 09:22:53;;;;;;;4.25;1.55;;;20.90;99.90;;;;;;5042059;28;20107;-91
2023/08/16 09:25:24;;;;;;;4.85;1.58;;;21.10;99.90;;;;;;5041799;28;20040;-91
2023/08/16 09:30:37;;;;;;;5.40;1.65;;;21.50;99.90;;;;;;5036531;28;20049;-90
2023/08/16 09:33:08;;;;;;;7.65;2.40;;;21.70;99.90;;;;;;5061961;28;20077;-93
2023/08/16 09:35:39;;;;;;;6.40;1.95;;;21.70;99.90;;;;;;5033445;28;20056;-92
2023/08/16 09:38:04;;;;;;;5.82;1.92;;;21.80;99.90;;;;;;5029203;28;20088;-91
2023/08/16 09:40:35;;;;;;;4.55;2.00;;;21.80;99.90;;;;;;5033091;28;20053;-92
2023/08/16 09:43:01;;;;;;;8.82;1.80;;;21.70;99.90;;;;;;5045214;28;20095;-91
2023/08/16 09:45:34;;;;;;;8.80;1.70;;;21.70;99.90;;;;;;5052047;28;20103;-92
2023/08/16 09:48:01;;;;;;;5.45;1.75;;;21.60;99.90;;;;;;5024779;28;20144;-92
2023/08/16 09:50:28;;;;;;;5.03;1.63;;;21.40;99.90;;;;;;5065500;28;20037;-92
2023/08/16 09:52:58;;;;;;;6.72;1.67;;;21.40;99.90;;;;;;5031658;28;20053;-90
2023/08/16 09:55:32;;;;;;;5.90;1.60;;;21.30;99.90;;;;;;5031648;28;20594;-90
2023/08/16 09:58:00;;;;;;;6.53;1.42;;;21.40;99.90;;;;;;5019300;28;20098;-92
2023/08/16 10:00:27;;;;;;;6.38;1.75;;;21.60;99.90;;;;;;5023725;28;20045;-91
2023/08/16 10:03:04;;;;;;;;;;;;;;;;;;;;;
2023/08/16 10:05:50;;;;;;;7.43;1.88;;;22.20;99.90;;;;;;5041445;28;20040;-91
2023/08/16 10:08:37;;;;;;;7.03;1.48;;;22.30;99.90;;;;;;5028663;28;20049;-92
2023/08/16 10:11:04;;;;;;;7.93;1.55;;;22.40;99.90;;;;;;5029583;28;20041;-90
2023/08/16 10:13:30;;;;;;;5.75;1.50;;;22.50;99.90;;;;;;5033071;28;20087;-91
2023/08/16 10:15:57;;;;;;;6.80;1.23;;;22.60;99.90;;;;;;5062612;28;20079;-89
2023/08/16 10:18:27;;;;;;;5.32;1.20;;;22.70;99.90;;;;;;5040579;28;20073;-92
2023/08/16 10:20:59;;;;;;;6.80;1.40;;;22.70;99.90;;;;;;5030433;28;20128;-92
2023/08/16 10:23:28;;;;;;;5.05;1.60;;;22.80;99.90;;;;;;5065672;28;20485;-92
2023/08/16 10:25:56;;;;;;;6.18;1.38;;;22.80;99.90;;;;;;5031412;28;20050;-92
2023/08/16 10:28:25;;;;;;;5.82;1.45;;;22.90;99.90;;;;;;5048783;28;20753;-92
2023/08/16 10:30:56;;;;;;;8.15;1.23;;;23.10;99.90;;;;;;5031614;28;20045;-92
2023/08/16 10:33:26;;;;;;;7.47;1.67;;;23.00;99.90;;;;;;5041040;28;20056;-92
2023/08/16 10:36:07;;;;;;;;;;;;;;;;;;;;;
2023/08/16 10:41:57;;;;;;;;;;;;;;;;;;;;;
2023/08/16 10:44:52;;;;;;;11.25;2.40;;;22.70;99.90;;;;;;5014471;28;20064;-91
2023/08/16 10:47:54;;;;;;;4.53;1.83;;;22.60;99.90;;;;;;5030722;28;20057;-92
2023/08/16 10:50:58;;;;;;;8.65;2.25;;;22.70;99.90;;;;;;5080300;28;20048;-90
2023/08/16 10:53:25;;;;;;;6.60;1.65;;;22.80;99.90;;;;;;5047798;28;20076;-91
2023/08/16 10:55:53;;;;;;;5.72;1.98;;;22.70;99.90;;;;;;5034614;28;20060;-91
2023/08/16 10:58:22;;;;;;;5.65;2.08;;;22.70;99.90;;;;;;5051209;28;20041;-92
2023/08/16 11:01:07;;;;;;;;;;;;;;;;;;;;;
2023/08/16 11:03:43;;;;;;;6.18;1.95;;;23.10;99.90;;;;;;5051902;28;20049;-92
2023/08/16 11:06:17;;;;;;;5.90;2.13;;;23.30;99.90;;;;;;5022529;28;20044;-91
2023/08/16 11:09:03;;;;;;;5.85;1.75;;;23.50;99.90;;;;;;5041406;28;20056;-90
2023/08/16 11:11:32;;;;;;;5.35;1.95;;;23.60;99.90;;;;;;5035126;28;20052;-90
2023/08/16 11:14:00;;;;;;;7.88;1.77;;;23.70;99.90;;;;;;5051006;28;20041;-89
2023/08/16 11:16:31;;;;;;;10.98;2.33;;;23.80;99.90;;;;;;5051521;28;20045;-90
2023/08/16 11:18:59;;;;;;;5.32;1.85;;;23.90;99.90;;;;;;5054249;28;20842;-90
2023/08/16 11:21:28;;;;;;;10.65;2.20;;;24.00;99.90;;;;;;5018065;28;20033;-92
2023/08/16 11:23:54;;;;;;;6.22;1.83;;;23.70;99.90;;;;;;5062472;28;20148;-91
2023/08/16 11:26:22;;;;;;;6.93;2.13;;;23.50;99.90;;;;;;5067511;28;20060;-90
2023/08/16 11:28:50;;;;;;;8.55;2.47;;;23.40;99.90;;;;;;5034761;28;20048;-91
2023/08/16 11:31:15;;;;;;;6.28;2.30;;;23.40;99.90;;;;;;5053341;28;20080;-91
2023/08/16 11:33:43;;;;;;;7.88;2.15;;;23.60;99.90;;;;;;5061341;28;20084;-91
2023/08/16 11:36:29;;;;;;;8.95;1.90;;;23.70;99.90;;;;;;5051154;28;20037;-90
2023/08/16 11:38:55;;;;;;;5.85;2.30;;;23.90;99.90;;;;;;5028581;28;20041;-89
2023/08/16 11:41:21;;;;;;;8.90;2.00;;;23.80;99.90;;;;;;5067792;28;20497;-91
2023/08/16 11:44:00;;;;;;;5.10;1.60;;;23.90;99.90;;;;;;5049494;28;20981;-92
2023/08/16 11:46:26;;;;;;;5.50;1.70;;;24.00;99.90;;;;;;5031995;28;20044;-91
2023/08/16 11:48:53;;;;;;;4.53;2.20;;;24.10;99.90;;;;;;5046477;28;20119;-91
2023/08/16 11:51:22;;;;;;;5.03;1.88;;;24.20;99.90;;;;;;5027755;28;20163;-88
2023/08/16 11:53:48;;;;;;;6.53;1.63;;;24.20;99.90;;;;;;5038906;28;20133;-90
2023/08/16 11:56:14;;;;;;;4.35;1.63;;;24.10;99.90;;;;;;5066117;28;20516;-91
2023/08/16 11:58:47;;;;;;;8.95;1.83;;;24.10;99.90;;;;;;5048346;28;20074;-92
2023/08/16 12:01:14;;;;;;;7.10;1.90;;;24.10;99.90;;;;;;5032125;28;20040;-91
2023/08/16 12:03:45;;;;;;;7.95;2.22;;;24.20;99.90;;;;;;5029397;28;20219;-91
2023/08/16 12:06:11;;;;;;;6.40;1.67;;;24.20;99.90;;;;;;5031922;28;20052;-92
2023/08/16 12:08:47;;;;;;;4.63;1.90;;;24.10;99.90;;;;;;5032631;28;20052;-92
2023/08/16 12:11:13;;;;;;;7.32;2.60;;;23.80;99.90;;;;;;5048782;28;20036;-91
2023/08/16 12:13:38;;;;;;;5.57;2.00;;;23.40;99.90;;;;;;5044972;28;20048;-90
2023/08/16 12:16:05;;;;;;;6.80;1.27;;;23.10;99.90;;;;;;5052494;28;20044;-91
2023/08/16 12:18:31;;;;;;;4.78;1.20;;;23.00;99.90;;;;;;5029206;28;20151;-93
2023/08/16 12:20:59;;;;;;;4.40;1.48;;;23.00;99.90;;;;;;5048378;28;20096;-92
2023/08/16 12:23:25;;;;;;;3.45;1.58;;;23.10;99.90;;;;;;5029050;28;20048;-93
2023/08/16 12:25:51;;;;;;;6.95;1.23;;;23.30;99.90;;;;;;5048930;28;20049;-94
2023/08/16 12:28:17;;;;;;;6.97;1.67;;;23.30;99.90;;;;;;5041869;28;20099;-94
2023/08/16 12:30:45;;;;;;;4.25;1.25;;;23.50;99.90;;;;;;5049533;28;20040;-94
2023/08/16 12:33:12;;;;;;;5.78;1.60;;;23.50;99.90;;;;;;5025874;28;20088;-94
2023/08/16 12:35:38;;;;;;;4.65;1.08;;;23.40;99.90;;;;;;5056828;28;20053;-92
2023/08/16 12:38:03;;;;;;;4.60;0.90;;;23.40;99.90;;;;;;5038773;28;20119;-93
2023/08/16 12:40:35;;;;;;;3.67;0.70;;;23.40;99.90;;;;;;5042678;28;20084;-93
2023/08/16 12:43:02;;;;;;;3.00;0.75;;;23.50;99.90;;;;;;5035989;28;20032;-90
2023/08/16 12:45:28;;;;;;;3.42;1.00;;;23.60;99.90;;;;;;5066252;28;20054;-92
2023/08/16 12:47:56;;;;;;;4.15;0.90;;;23.60;99.90;;;;;;5028410;28;20049;-93
2023/08/16 12:50:21;;;;;;;6.88;0.57;;;23.70;99.90;;;;;;5063004;28;20060;-90
2023/08/16 12:52:47;;;;;;;4.80;0.90;;;23.70;99.90;;;;;;5059625;28;20480;-93
2023/08/16 12:55:13;;;;;;;5.63;0.73;;;23.80;99.90;;;;;;5038851;28;20069;-92
2023/08/16 12:57:39;;;;;;;6.95;1.10;;;23.80;99.90;;;;;;5029455;28;20128;-92
2023/08/16 13:00:06;;;;;;;5.55;0.90;;;23.90;99.90;;;;;;5026172;28;20159;-91
2023/08/16 13:02:32;;;;;;;4.72;0.88;;;23.90;99.90;;;;;;5014055;28;20053;-93